Aérodrome :
LOGIN :

S'inscrire | Disclaimer

   EN    FR    IT 

 










Légende :    VFR   VFR Marginal   IFR   IFR Intensif   IFR Très Intensif
Visi : 
Plafond : 
>= 8 km
>= 3000ft
5 à 8 km
1000 à 3000 ft
1500m à 5 km
500 à 1000 ft
800 à 1500m
200 à 500 ft
< 800m
< 200 ft
Symboles :   Orages  Brouillard  Fortes neiges  Fortes précipitations  Vent > 20 kt
SIGMETs :   Divers  Orages  Givrage  Turbulence  Onde Orograph.  Cendres Volcan.







- Altitude de l'aérodrome : 65 ft
- Code IATA : PMO


LICJ - Palermo Punta Raisi

DERNIER METAR :
  • 171920Z 01012KT 9999 SCT030 18/12 Q1013

METARs EXPIRÉS :
  • 171850Z 03013KT 9999 SCT030 17/12 Q1013
  • 171820Z 05013KT 9999 SCT030 16/12 Q1013
  • 171750Z 08007KT 040V200 9999 SCT030 16/12 Q1012
  • 171720Z 17003KT 150V230 9999 SCT030 15/11 Q1012
  • 171650Z 10003KT 040V110 9999 SCT030 16/11 Q1012
  • 171620Z 09005KT 040V110 9999 SCT030 16/11 Q1012

TAF TAF LICJ
Valide du 17 à 18h jusqu'au 18 à 18h UTC


171700Z 1718/1818 02012KT 9999 SCT030
TEMPO 1718/1721
BECMG 1809/1811 28012KT
Pas de NOTAMs connus pour ce terrain.



MET'MAP, la Météo Aéronautique d'un coup d'oeil ! - Copyright ORBIFLY Décembre 2007 - Disclaimer

ORBIFLY MET'MAP TEAM :

Programmation & Développement : Alexandra Zaïnal
Conception & Développement : Baudouin d'Aumeries
Co-Programmation & Développement : Marc-Olivier Méhu
Soutien technique & logistique : Manuel Goepfert

Contact : metmap@orbifly.com




SOURCES & CREDITS :

   NOAA